Time;durP1;ratioP1;P1;durP2;ratioP2;P2;SDS_P1;SDS_P2;PMS_P1;PMS_P2;Temp;Humidity;BMP_temperature;BMP_pressure;BME280_temperature;BME280_humidity;BME280_pressure;Samples;Min_cycle;Max_cycle;Signal;HPM_P1;HPM_P2
2021/07/29 00:00:44;;;;;;;;;;;;;;;19.12;76.17;99892.81;10293832;28;20020;-68
2021/07/29 00:05:47;;;;;;;;;;;;;;;19.15;75.61;99897.81;10294374;28;19929;-68
2021/07/29 00:10:48;;;;;;;;;;;;;;;19.13;75.90;99889.09;10290583;28;19992;-68
2021/07/29 00:15:50;;;;;;;;;;;;;;;19.06;75.92;99881.72;10298348;28;19932;-68
2021/07/29 00:20:51;;;;;;;;;;;;;;;19.12;75.74;99876.63;10314594;28;20403;-69
2021/07/29 00:25:52;;;;;;;;;;;;;;;19.02;75.50;99877.75;10326158;28;19972;-68
2021/07/29 00:30:54;;;;;;;;;;;;;;;18.99;75.28;99878.13;10323345;28;19957;-68
2021/07/29 00:35:55;;;;;;;;;;;;;;;18.99;74.98;99870.03;10304271;28;19921;-68
2021/07/29 00:40:56;;;;;;;;;;;;;;;18.98;73.68;99875.63;10312607;28;19968;-68
2021/07/29 00:45:59;;;;;;;;;;;;;;;18.88;73.27;99867.81;10314502;28;20395;-68
2021/07/29 00:51:00;;;;;;;;;;;;;;;18.91;72.75;99859.34;10313640;28;19976;-69
2021/07/29 00:56:02;;;;;;;;;;;;;;;18.90;72.20;99863.91;10297794;28;20020;-68
2021/07/29 01:01:03;;;;;;;;;;;;;;;18.85;71.23;99865.44;10301080;28;20016;-68
2021/07/29 01:06:05;;;;;;;;;;;;;;;18.82;70.63;99857.75;10308036;28;19984;-69
2021/07/29 01:11:06;;;;;;;;;;;;;;;18.77;70.41;99854.78;10296522;28;20008;-68
2021/07/29 01:16:07;;;;;;;;;;;;;;;18.78;69.76;99854.59;10294732;28;19977;-68
2021/07/29 01:21:09;;;;;;;;;;;;;;;18.68;69.76;99854.84;10307452;28;19922;-69
2021/07/29 01:26:10;;;;;;;;;;;;;;;18.70;70.65;99847.41;10303043;28;20680;-68
2021/07/29 01:31:11;;;;;;;;;;;;;;;18.73;70.50;99847.06;10298154;28;20412;-68
2021/07/29 01:36:13;;;;;;;;;;;;;;;18.70;70.72;99843.88;10298413;28;20363;-67
2021/07/29 01:41:14;;;;;;;;;;;;;;;18.72;70.43;99834.59;10294099;28;19977;-68
2021/07/29 01:46:16;;;;;;;;;;;;;;;18.69;70.70;99837.66;10296710;28;20021;-68
2021/07/29 01:51:17;;;;;;;;;;;;;;;18.56;71.30;99826.69;10314932;28;19962;-68
2021/07/29 01:56:20;;;;;;;;;;;;;;;18.60;70.88;99829.84;10326738;28;20371;-68
2021/07/29 02:01:23;;;;;;;;;;;;;;;18.63;70.86;99829.47;10309357;28;19972;-68
2021/07/29 02:06:25;;;;;;;;;;;;;;;18.45;71.35;99835.25;10306514;28;19921;-68
2021/07/29 02:11:30;;;;;;;;;;;;;;;18.47;71.42;99830.50;10305704;28;20432;-68
2021/07/29 02:16:31;;;;;;;;;;;;;;;18.47;71.54;99834.03;10307882;28;19930;-68
2021/07/29 02:21:33;;;;;;;;;;;;;;;18.45;71.95;99832.53;10322532;28;20377;-68
2021/07/29 02:26:34;;;;;;;;;;;;;;;18.47;72.97;99830.50;10307774;28;19933;-68
2021/07/29 02:31:36;;;;;;;;;;;;;;;18.54;72.52;99831.47;10304364;28;19921;-68
2021/07/29 02:36:37;;;;;;;;;;;;;;;18.50;73.09;99830.97;10302448;28;20358;-68
2021/07/29 02:41:38;;;;;;;;;;;;;;;18.39;73.51;99834.13;10301533;28;19928;-67
2021/07/29 02:46:39;;;;;;;;;;;;;;;18.33;73.84;99835.72;10299035;28;20622;-68
2021/07/29 02:51:41;;;;;;;;;;;;;;;18.30;73.86;99841.47;10299865;28;20372;-68
2021/07/29 02:56:42;;;;;;;;;;;;;;;18.37;73.85;99845.09;10301086;28;20008;-68
2021/07/29 03:01:44;;;;;;;;;;;;;;;18.35;73.08;99843.59;10301506;28;20040;-68
2021/07/29 03:06:45;;;;;;;;;;;;;;;18.27;73.60;99831.06;10300727;28;19925;-68
2021/07/29 03:11:47;;;;;;;;;;;;;;;18.28;73.38;99832.72;10303657;28;20422;-68
2021/07/29 03:16:48;;;;;;;;;;;;;;;18.15;73.00;99835.19;10303579;28;20367;-69
2021/07/29 03:21:49;;;;;;;;;;;;;;;17.96;73.55;99826.63;10298551;28;20005;-69
2021/07/29 03:26:50;;;;;;;;;;;;;;;17.99;73.35;99828.97;10299223;28;20313;-69
2021/07/29 03:31:52;;;;;;;;;;;;;;;17.99;73.72;99834.34;10300440;28;20004;-68
2021/07/29 03:36:53;;;;;;;;;;;;;;;18.04;73.49;99836.47;10302836;28;19928;-69
2021/07/29 03:41:55;;;;;;;;;;;;;;;18.06;73.28;99839.84;10301196;28;20003;-68
2021/07/29 03:46:56;;;;;;;;;;;;;;;17.92;73.53;99846.84;10311469;28;19922;-68
2021/07/29 03:51:59;;;;;;;;;;;;;;;17.82;73.88;99841.69;10300318;28;20017;-68
2021/07/29 03:57:00;;;;;;;;;;;;;;;17.74;73.54;99844.44;10305669;28;20033;-69
2021/07/29 04:02:09;;;;;;;;;;;;;;;17.73;73.40;99860.78;10308848;28;19988;-70
2021/07/29 04:07:10;;;;;;;;;;;;;;;17.71;73.56;99863.66;10315200;28;19930;-69
2021/07/29 04:12:12;;;;;;;;;;;;;;;17.75;73.42;99872.22;10310264;28;19972;-69
2021/07/29 04:17:13;;;;;;;;;;;;;;;17.87;73.10;99868.06;10302500;28;19952;-69
2021/07/29 04:22:14;;;;;;;;;;;;;;;17.92;72.83;99870.25;10306021;28;20004;-69
2021/07/29 04:27:16;;;;;;;;;;;;;;;18.05;72.80;99872.34;10302102;28;20012;-70
2021/07/29 04:32:17;;;;;;;;;;;;;;;17.97;71.77;99871.41;10298047;28;19964;-69
2021/07/29 04:37:18;;;;;;;;;;;;;;;17.88;71.89;99880.53;10304787;28;19972;-68
2021/07/29 04:42:19;;;;;;;;;;;;;;;17.97;71.33;99884.84;10308754;28;19952;-68
2021/07/29 04:47:21;;;;;;;;;;;;;;;17.88;71.17;99880.53;10306763;28;20020;-68
2021/07/29 04:52:22;;;;;;;;;;;;;;;17.81;71.14;99880.41;10307320;28;19976;-69
2021/07/29 04:57:23;;;;;;;;;;;;;;;17.81;71.19;99871.50;10302007;28;19922;-68
2021/07/29 05:02:25;;;;;;;;;;;;;;;17.89;70.99;99879.53;10284350;28;20000;-68
2021/07/29 05:07:27;;;;;;;;;;;;;;;18.02;70.73;99876.22;10298493;28;19996;-68
2021/07/29 05:12:29;;;;;;;;;;;;;;;18.02;70.29;99876.22;10300752;28;19922;-69
2021/07/29 05:17:30;;;;;;;;;;;;;;;18.01;69.90;99878.09;10309077;28;19940;-69
2021/07/29 05:22:33;;;;;;;;;;;;;;;18.09;69.44;99860.16;10297910;28;19929;-68
2021/07/29 05:27:34;;;;;;;;;;;;;;;18.19;69.83;99867.00;10313979;28;20013;-68
2021/07/29 05:32:36;;;;;;;;;;;;;;;18.23;68.68;99870.16;10294841;28;19922;-68
2021/07/29 05:37:37;;;;;;;;;;;;;;;18.12;68.87;99875.97;10312270;28;20018;-68
2021/07/29 05:42:39;;;;;;;;;;;;;;;18.22;68.45;99879.25;10297665;28;19929;-68
2021/07/29 05:47:41;;;;;;;;;;;;;;;18.19;68.02;99893.09;10303092;28;20020;-68
2021/07/29 05:52:43;;;;;;;;;;;;;;;18.05;68.94;99891.19;10312315;28;19976;-68
2021/07/29 05:57:44;;;;;;;;;;;;;;;18.21;67.33;99888.38;10307549;28;19926;-70
2021/07/29 06:02:45;;;;;;;;;;;;;;;18.51;68.83;99896.47;10293908;28;19925;-69
2021/07/29 06:07:47;;;;;;;;;;;;;;;18.68;66.41;99907.94;10300743;28;19921;-70
2021/07/29 06:12:48;;;;;;;;;;;;;;;18.72;66.49;99907.38;10288146;28;19947;-71
2021/07/29 06:17:55;;;;;;;;;;;;;;;18.61;66.20;99909.69;10304872;28;20192;-69
2021/07/29 06:22:57;;;;;;;;;;;;;;;18.69;66.06;99915.84;10296057;28;19961;-67
2021/07/29 06:27:58;;;;;;;;;;;;;;;18.75;66.43;99916.97;10296319;28;20021;-68
2021/07/29 06:32:59;;;;;;;;;;;;;;;18.67;66.15;99915.19;10292320;28;20505;-68
2021/07/29 06:38:01;;;;;;;;;;;;;;;18.50;66.82;99922.59;10293096;28;19922;-69
2021/07/29 06:43:02;;;;;;;;;;;;;;;18.75;66.35;99910.72;10300526;28;19921;-66
2021/07/29 06:48:03;;;;;;;;;;;;;;;18.84;66.06;99925.78;10302085;28;20003;-68
2021/07/29 06:53:05;;;;;;;;;;;;;;;18.90;65.84;99925.94;10301585;28;20009;-67
2021/07/29 06:58:06;;;;;;;;;;;;;;;18.90;65.27;99927.78;10300656;28;19930;-65
2021/07/29 07:03:07;;;;;;;;;;;;;;;19.11;64.75;99931.59;10300892;28;19927;-68
2021/07/29 07:08:09;;;;;;;;;;;;;;;19.14;64.69;99939.31;10298054;28;19922;-68
2021/07/29 07:13:10;;;;;;;;;;;;;;;19.26;64.40;99935.13;10295380;28;20017;-68
2021/07/29 07:18:11;;;;;;;;;;;;;;;19.30;64.11;99938.28;10299849;28;20613;-68
2021/07/29 07:23:13;;;;;;;;;;;;;;;19.49;63.81;99936.84;10299643;28;19952;-67
2021/07/29 07:28:14;;;;;;;;;;;;;;;19.72;62.30;99928.59;10301362;28;20444;-68
2021/07/29 07:33:16;;;;;;;;;;;;;;;20.17;60.10;99923.03;10299987;28;20570;-69
2021/07/29 07:38:17;;;;;;;;;;;;;;;20.39;59.76;99918.44;10299637;28;20315;-68
2021/07/29 07:43:18;;;;;;;;;;;;;;;20.20;59.53;99922.66;10298907;28;20023;-68
2021/07/29 07:48:21;;;;;;;;;;;;;;;20.12;59.57;99916.34;10298367;28;19921;-72
2021/07/29 07:53:24;;;;;;;;;;;;;;;20.23;58.90;99917.66;10296961;28;19922;-68
2021/07/29 07:58:25;;;;;;;;;;;;;;;20.67;58.74;99913.03;10297958;28;19936;-69
2021/07/29 08:03:26;;;;;;;;;;;;;;;20.91;57.73;99910.91;10295301;28;19922;-68
2021/07/29 08:08:28;;;;;;;;;;;;;;;20.89;56.38;99911.09;10298000;28;20457;-68
2021/07/29 08:13:29;;;;;;;;;;;;;;;20.52;57.06;99901.47;10296831;28;19928;-70
2021/07/29 08:18:31;;;;;;;;;;;;;;;20.37;57.56;99902.41;10297887;28;19952;-68
2021/07/29 08:23:32;;;;;;;;;;;;;;;20.46;56.28;99900.38;10298521;28;20012;-69
2021/07/29 08:28:34;;;;;;;;;;;;;;;20.70;55.78;99893.72;10299146;28;21473;-68
2021/07/29 08:33:36;;;;;;;;;;;;;;;21.06;55.49;99898.06;10298094;28;19921;-67
2021/07/29 08:38:37;;;;;;;;;;;;;;;21.08;52.94;99893.31;10299879;28;19936;-69
2021/07/29 08:43:38;;;;;;;;;;;;;;;21.25;51.42;99901.09;10296703;28;20016;-67
2021/07/29 08:48:43;;;;;;;;;;;;;;;21.93;50.73;99895.66;10304519;28;20001;-68
2021/07/29 08:53:46;;;;;;;;;;;;;;;21.80;49.17;99892.91;10300144;28;20023;-69
2021/07/29 08:58:48;;;;;;;;;;;;;;;22.01;49.48;99897.34;10298949;28;19937;-67
2021/07/29 09:03:52;;;;;;;;;;;;;;;22.42;47.30;99899.03;10295684;28;20507;-68
2021/07/29 09:08:57;;;;;;;;;;;;;;;22.53;46.07;99900.28;10295458;28;19952;-68
2021/07/29 09:14:04;;;;;;;;;;;;;;;22.45;44.95;99909.47;10298342;28;20024;-68
2021/07/29 09:19:06;;;;;;;;;;;;;;;22.56;44.36;99891.72;10299234;28;19953;-68
2021/07/29 09:24:08;;;;;;;;;;;;;;;22.44;45.49;99918.63;10304954;28;20349;-68
2021/07/29 09:29:20;;;;;;;;;;;;;;;22.91;45.22;99908.53;10303992;28;19998;-68
2021/07/29 09:34:21;;;;;;;;;;;;;;;23.00;45.24;99911.88;10323713;28;19914;-69
2021/07/29 09:39:22;;;;;;;;;;;;;;;23.06;43.93;99897.44;10318962;28;20125;-68
2021/07/29 09:44:43;;;;;;;;;;;;;;;23.33;41.41;99915.53;10299662;28;20029;-69
2021/07/29 09:49:45;;;;;;;;;;;;;;;23.65;40.09;99903.66;10295400;28;20032;-67
2021/07/29 09:54:47;;;;;;;;;;;;;;;24.07;39.30;99915.97;10297441;28;20019;-69
2021/07/29 09:59:49;;;;;;;;;;;;;;;23.64;40.63;99907.44;10297983;28;19921;-69
2021/07/29 10:04:53;;;;;;;;;;;;;;;23.27;41.72;99912.63;10294174;28;20591;-68
2021/07/29 10:09:54;;;;;;;;;;;;;;;23.01;42.29;99901.84;10294553;28;25122;-69
2021/07/29 10:14:56;;;;;;;;;;;;;;;23.28;41.53;99908.03;10299636;28;19928;-69
2021/07/29 10:20:15;;;;;;;;;;;;;;;24.11;40.93;99890.84;10302287;28;19936;-69
2021/07/29 10:25:17;;;;;;;;;;;;;;;24.27;39.90;99903.03;10299699;28;19928;-69
2021/07/29 10:30:18;;;;;;;;;;;;;;;24.84;38.29;99899.38;10303489;28;20013;-70
2021/07/29 10:35:25;;;;;;;;;;;;;;;24.90;36.13;99908.53;10304431;28;19930;-70
2021/07/29 10:40:32;;;;;;;;;;;;;;;25.14;37.16;99904.06;10302817;28;20004;-70
2021/07/29 10:45:54;;;;;;;;;;;;;;;24.62;37.58;99897.13;10301042;28;24758;-70
2021/07/29 10:51:11;;;;;;;;;;;;;;;24.40;36.73;99904.00;10305263;28;19936;-69
2021/07/29 10:56:14;;;;;;;;;;;;;;;23.99;37.67;99892.63;10302167;28;20013;-69
2021/07/29 11:01:16;;;;;;;;;;;;;;;23.92;38.83;99908.13;10308445;28;20020;-68
2021/07/29 11:06:25;;;;;;;;;;;;;;;24.15;37.66;99913.78;10302005;28;20594;-68
2021/07/29 11:11:26;;;;;;;;;;;;;;;24.25;38.21;99902.44;10297706;28;19921;-68
2021/07/29 11:16:27;;;;;;;;;;;;;;;24.29;36.94;99914.53;10302150;28;20000;-69
2021/07/29 11:21:29;;;;;;;;;;;;;;;24.65;37.04;99896.66;10302083;28;19930;-69
2021/07/29 11:26:43;;;;;;;;;;;;;;;24.72;36.60;99903.91;10300684;28;19922;-70
2021/07/29 11:31:44;;;;;;;;;;;;;;;25.10;36.12;99913.75;10296267;28;19933;-69
2021/07/29 11:36:55;;;;;;;;;;;;;;;24.85;35.49;99906.50;10298898;28;19933;-69
2021/07/29 11:41:56;;;;;;;;;;;;;;;25.50;34.36;99902.38;10296508;28;19926;-69
2021/07/29 11:46:58;;;;;;;;;;;;;;;26.22;33.00;99901.56;10300550;28;19929;-70
2021/07/29 11:52:06;;;;;;;;;;;;;;;26.33;31.96;99906.16;10298665;28;20425;-70
2021/07/29 11:57:08;;;;;;;;;;;;;;;25.63;32.98;99913.13;10300185;28;19957;-69
2021/07/29 12:02:10;;;;;;;;;;;;;;;25.57;33.30;99909.41;10297184;28;19940;-70
2021/07/29 12:07:13;;;;;;;;;;;;;;;24.56;34.45;99917.03;10299853;28;19921;-68
2021/07/29 12:12:16;;;;;;;;;;;;;;;24.11;35.42;99917.19;10298082;28;19949;-69
2021/07/29 12:17:20;;;;;;;;;;;;;;;24.27;35.57;99902.22;10298511;28;19925;-69
2021/07/29 12:22:23;;;;;;;;;;;;;;;24.81;35.67;99906.09;10298344;28;20395;-69
2021/07/29 12:27:24;;;;;;;;;;;;;;;24.92;35.84;99906.41;10298437;28;20423;-69
2021/07/29 12:32:29;;;;;;;;;;;;;;;25.20;34.64;99898.53;10300802;28;19992;-68
2021/07/29 12:37:31;;;;;;;;;;;;;;;25.34;34.16;99898.41;10296804;28;19930;-69
2021/07/29 12:42:34;;;;;;;;;;;;;;;25.37;33.10;99893.34;10298573;28;19929;-69
2021/07/29 12:47:36;;;;;;;;;;;;;;;25.64;33.34;99889.41;10295334;28;19949;-69
2021/07/29 12:52:37;;;;;;;;;;;;;;;25.19;33.88;99883.28;10296898;28;19930;-70
2021/07/29 12:58:08;;;;;;;;;;;;;;;25.04;32.80;99877.38;10309564;28;20005;-69
2021/07/29 13:03:26;;;;;;;;;;;;;;;24.86;34.58;99880.94;10296242;28;19989;-69
2021/07/29 13:08:28;;;;;;;;;;;;;;;25.48;34.68;99882.72;10296091;28;19936;-69
2021/07/29 13:13:33;;;;;;;;;;;;;;;25.53;34.35;99880.13;10298396;28;19921;-69
2021/07/29 13:18:35;;;;;;;;;;;;;;;25.70;33.88;99886.59;10299329;28;20016;-68
2021/07/29 13:23:36;;;;;;;;;;;;;;;25.99;33.34;99872.34;10299179;28;19964;-69
2021/07/29 13:28:38;;;;;;;;;;;;;;;25.93;32.90;99879.53;10299091;28;19929;-70
2021/07/29 13:33:40;;;;;;;;;;;;;;;25.38;33.66;99883.25;10296732;28;19944;-69
2021/07/29 13:38:43;;;;;;;;;;;;;;;25.39;33.77;99880.31;10298978;28;20008;-70
2021/07/29 13:43:44;;;;;;;;;;;;;;;25.38;33.41;99883.25;10296289;28;19926;-70
2021/07/29 13:48:46;;;;;;;;;;;;;;;25.08;33.84;99880.50;10307183;28;20357;-69
2021/07/29 13:53:47;;;;;;;;;;;;;;;25.25;34.62;99878.78;10304803;28;20012;-70
2021/07/29 13:58:48;;;;;;;;;;;;;;;24.71;35.14;99873.13;10303978;28;20048;-70
2021/07/29 14:03:50;;;;;;;;;;;;;;;24.51;35.41;99870.59;10302368;28;20734;-69
2021/07/29 14:08:52;;;;;;;;;;;;;;;24.44;35.42;99867.09;10299185;28;20057;-70
2021/07/29 14:13:53;;;;;;;;;;;;;;;24.68;35.70;99865.44;10303378;28;19928;-69
2021/07/29 14:19:00;;;;;;;;;;;;;;;24.83;35.63;99865.91;10303666;28;19930;-69
2021/07/29 14:24:02;;;;;;;;;;;;;;;24.97;35.69;99866.56;10303367;28;20072;-70
2021/07/29 14:29:03;;;;;;;;;;;;;;;24.92;35.76;99855.56;10303909;28;20384;-69
2021/07/29 14:34:04;;;;;;;;;;;;;;;25.00;36.16;99849.78;10303568;28;20002;-70
2021/07/29 14:39:05;;;;;;;;;;;;;;;25.08;35.47;99864.16;10302196;28;20012;-69
2021/07/29 14:44:07;;;;;;;;;;;;;;;24.64;35.21;99845.19;10305021;28;19926;-70
2021/07/29 14:49:19;;;;;;;;;;;;;;;24.43;36.10;99849.97;10301963;28;20372;-69
2021/07/29 14:54:29;;;;;;;;;;;;;;;24.26;36.40;99852.44;10301999;28;19931;-69
2021/07/29 16:08:58;;;;;;;;;;;;;;;23.78;37.67;99831.25;10297348;28;20020;-69
2021/07/29 16:14:03;;;;;;;;;;;;;;;23.77;36.69;99832.31;10296179;28;19930;-68
2021/07/29 16:19:05;;;;;;;;;;;;;;;23.70;36.44;99834.25;10296030;28;20015;-68
2021/07/29 16:24:06;;;;;;;;;;;;;;;23.67;36.61;99840.13;10299104;28;19929;-68
2021/07/29 16:29:07;;;;;;;;;;;;;;;23.55;36.24;99829.94;10296270;28;19928;-68
2021/07/29 16:34:08;;;;;;;;;;;;;;;23.51;35.24;99815.16;10292371;28;20431;-69
2021/07/29 16:39:10;;;;;;;;;;;;;;;23.44;35.56;99809.75;10309684;28;19964;-68
2021/07/29 16:44:11;;;;;;;;;;;;;;;23.39;36.38;99806.03;10299942;28;19921;-69
2021/07/29 16:49:12;;;;;;;;;;;;;;;23.40;36.53;99805.00;10297483;28;19922;-67
2021/07/29 16:54:14;;;;;;;;;;;;;;;23.31;37.71;99807.13;10292737;28;19973;-68
2021/07/29 16:59:15;;;;;;;;;;;;;;;23.32;40.15;99794.41;10296850;28;19921;-68
2021/07/29 17:04:16;;;;;;;;;;;;;;;23.32;38.17;99791.69;10300154;28;20004;-68
2021/07/29 17:09:18;;;;;;;;;;;;;;;23.36;36.49;99795.59;10307375;28;19931;-68
2021/07/29 17:14:19;;;;;;;;;;;;;;;23.33;37.44;99801.47;10298265;28;20111;-67
2021/07/29 17:19:25;;;;;;;;;;;;;;;23.16;37.13;99804.69;10298898;28;19953;-72
2021/07/29 17:24:26;;;;;;;;;;;;;;;23.14;37.58;99806.81;10293175;28;19993;-69
2021/07/29 17:29:28;;;;;;;;;;;;;;;23.22;39.29;99811.16;10293965;28;20016;-68
2021/07/29 17:34:29;;;;;;;;;;;;;;;23.09;37.23;99795.75;10294860;28;19929;-70
2021/07/29 17:39:31;;;;;;;;;;;;;;;23.02;37.20;99797.66;10292431;28;19922;-68
2021/07/29 17:44:35;;;;;;;;;;;;;;;22.93;38.02;99806.03;10293346;28;19960;-68
2021/07/29 17:49:36;;;;;;;;;;;;;;;22.85;37.61;99803.59;10294359;28;21515;-66
2021/07/29 17:54:38;;;;;;;;;;;;;;;22.77;38.70;99809.22;10296866;28;19922;-68
2021/07/29 17:59:40;;;;;;;;;;;;;;;22.69;39.39;99806.78;10294951;28;19942;-67
2021/07/29 18:04:56;;;;;;;;;;;;;;;22.70;38.88;99803.00;10296403;28;19933;-67
2021/07/29 18:09:58;;;;;;;;;;;;;;;;;;10295836;28;19925;-68
2021/07/29 18:14:59;;;;;;;;;;;;;;;22.67;39.96;99806.13;10291044;28;19921;-67
2021/07/29 18:20:00;;;;;;;;;;;;;;;22.59;39.13;99796.34;10291611;28;19936;-66
2021/07/29 18:25:03;;;;;;;;;;;;;;;22.52;40.27;99792.81;10292251;28;21093;-68
2021/07/29 18:30:04;;;;;;;;;;;;;;;22.47;40.14;99798.88;10294617;28;20017;-66
2021/07/29 18:35:06;;;;;;;;;;;;;;;22.48;39.82;99800.56;10299455;28;19922;-67
2021/07/29 18:40:08;;;;;;;;;;;;;;;22.37;39.72;99809.38;10301817;28;19976;-67
2021/07/29 18:45:09;;;;;;;;;;;;;;;22.28;40.46;99806.00;10300252;28;20044;-67
2021/07/29 18:50:11;;;;;;;;;;;;;;;22.25;40.74;99801.00;10298474;28;19930;-65
2021/07/29 18:55:13;;;;;;;;;;;;;;;22.12;40.84;99799.16;10301586;28;19941;-67
2021/07/29 19:00:14;;;;;;;;;;;;;;;22.06;41.00;99800.81;10301027;28;20295;-68
2021/07/29 19:05:15;;;;;;;;;;;;;;;22.10;41.49;99803.94;10300475;28;19932;-67
2021/07/29 19:10:17;;;;;;;;;;;;;;;22.07;41.73;99809.78;10301519;28;20004;-68
2021/07/29 19:15:18;;;;;;;;;;;;;;;21.96;42.11;99802.28;10297195;28;19965;-68
2021/07/29 19:20:21;;;;;;;;;;;;;;;21.98;43.45;99808.31;10300796;28;20051;-68
2021/07/29 19:25:22;;;;;;;;;;;;;;;21.91;42.80;99816.47;10297735;28;19965;-67
2021/07/29 19:30:24;;;;;;;;;;;;;;;21.82;42.38;99817.72;10300738;28;19922;-68
2021/07/29 19:35:26;;;;;;;;;;;;;;;21.64;43.71;99823.75;10299679;28;20490;-67
2021/07/29 19:40:29;;;;;;;;;;;;;;;21.66;44.10;99818.94;10301183;28;20470;-67
2021/07/29 19:45:31;;;;;;;;;;;;;;;21.64;43.71;99815.63;10302371;28;19926;-68
2021/07/29 19:50:34;;;;;;;;;;;;;;;21.58;44.65;99824.56;10302097;28;19928;-67
2021/07/29 19:55:37;;;;;;;;;;;;;;;21.57;45.14;99825.59;10303466;28;20012;-66
2021/07/29 20:00:40;;;;;;;;;;;;;;;21.53;45.25;99815.19;10301564;28;19947;-67
2021/07/29 20:05:42;;;;;;;;;;;;;;;21.54;45.32;99827.69;10303455;28;19930;-67
2021/07/29 20:10:43;;;;;;;;;;;;;;;21.51;45.38;99841.66;10295919;28;20448;-67
2021/07/29 20:15:44;;;;;;;;;;;;;;;21.49;45.73;99840.97;10299853;28;19954;-66
2021/07/29 20:20:46;;;;;;;;;;;;;;;21.48;45.80;99842.03;10304478;28;20060;-68
2021/07/29 20:25:47;;;;;;;;;;;;;;;21.46;45.83;99844.09;10304124;28;20017;-67
2021/07/29 20:30:48;;;;;;;;;;;;;;;21.44;46.69;99837.19;10306191;28;19984;-68
2021/07/29 20:35:50;;;;;;;;;;;;;;;21.40;46.48;99839.50;10304698;28;19922;-67
2021/07/29 20:40:51;;;;;;;;;;;;;;;21.35;46.73;99833.88;10313033;28;20033;-68
2021/07/29 20:45:53;;;;;;;;;;;;;;;21.30;46.84;99834.47;10316534;28;20017;-68
2021/07/29 20:50:54;;;;;;;;;;;;;;;21.25;46.96;99833.41;10312440;28;19922;-68
2021/07/29 20:55:55;;;;;;;;;;;;;;;21.21;47.34;99826.72;10347349;28;19933;-68
2021/07/29 21:00:57;;;;;;;;;;;;;;;21.14;47.81;99832.97;10314615;28;20476;-67
2021/07/29 21:05:58;;;;;;;;;;;;;;;21.11;47.87;99819.03;10309353;28;20009;-68
2021/07/29 21:11:00;;;;;;;;;;;;;;;21.04;47.96;99821.69;10310408;28;20348;-68
2021/07/29 21:16:01;;;;;;;;;;;;;;;20.99;48.47;99824.19;10311678;28;22665;-68
2021/07/29 21:21:03;;;;;;;;;;;;;;;20.92;49.21;99826.00;10309871;28;19933;-67
2021/07/29 21:26:04;;;;;;;;;;;;;;;20.89;49.25;99821.00;10302707;28;19922;-69
2021/07/29 21:31:05;;;;;;;;;;;;;;;20.88;49.39;99827.44;10295533;28;20024;-66
2021/07/29 21:36:07;;;;;;;;;;;;;;;20.75;49.72;99829.06;10299893;28;20029;-67
2021/07/29 21:41:08;;;;;;;;;;;;;;;20.76;49.67;99819.91;10306660;28;19928;-68
2021/07/29 21:46:10;;;;;;;;;;;;;;;20.75;49.54;99823.66;10302538;28;20008;-70
2021/07/29 21:51:11;;;;;;;;;;;;;;;20.73;49.60;99824.88;10306040;28;19930;-67
2021/07/29 21:56:12;;;;;;;;;;;;;;;20.67;50.02;99815.69;10303258;28;20016;-68
2021/07/29 22:01:14;;;;;;;;;;;;;;;20.65;50.21;99823.16;10307517;28;20000;-68
2021/07/29 22:06:15;;;;;;;;;;;;;;;20.62;50.23;99823.53;10305552;28;20316;-68
2021/07/29 22:11:17;;;;;;;;;;;;;;;20.53;50.03;99816.63;10305324;28;20158;-68
2021/07/29 22:16:57;;;;;;;;;;;;;;;20.32;50.87;99823.78;10312703;28;19972;-68
2021/07/29 22:21:40;;;;;;;;;;;;;;;20.11;52.25;99816.56;10309500;28;19988;-68
2021/07/29 22:26:41;;;;;;;;;;;;;;;19.93;52.40;99814.34;10311658;28;20392;-67
2021/07/29 22:31:43;;;;;;;;;;;;;;;19.77;52.79;99810.91;10312422;28;20382;-67
2021/07/29 22:36:44;;;;;;;;;;;;;;;19.93;52.81;99811.66;10302768;28;20361;-68
2021/07/29 22:41:45;;;;;;;;;;;;;;;20.11;52.58;99817.41;10306257;28;19945;-68
2021/07/29 22:46:47;;;;;;;;;;;;;;;20.17;52.17;99814.94;10315069;28;19925;-67
2021/07/29 22:51:48;;;;;;;;;;;;;;;20.17;52.04;99810.38;10303845;28;20372;-68
2021/07/29 22:56:49;;;;;;;;;;;;;;;20.13;52.25;99804.53;10311517;28;19985;-68
2021/07/29 23:01:51;;;;;;;;;;;;;;;20.11;52.71;99809.28;10312893;28;19949;-68
2021/07/29 23:06:52;;;;;;;;;;;;;;;20.09;52.85;99803.25;10310455;28;20128;-68
2021/07/29 23:11:53;;;;;;;;;;;;;;;20.06;52.87;99802.81;10311672;28;20168;-68
2021/07/29 23:16:57;;;;;;;;;;;;;;;19.98;53.43;99800.25;10312363;28;19922;-68
2021/07/29 23:22:01;;;;;;;;;;;;;;;19.93;54.03;99801.66;10305486;28;20041;-67
2021/07/29 23:32:22;;;;;;;;;;;;;;;19.83;54.19;99792.25;10299339;28;19929;-66
2021/07/29 23:37:23;;;;;;;;;;;;;;;19.81;54.56;99799.72;10301403;28;19930;-67
2021/07/29 23:42:29;;;;;;;;;;;;;;;19.71;54.63;99790.06;10325487;28;19976;-67
2021/07/29 23:47:31;;;;;;;;;;;;;;;19.67;54.98;99788.75;10311403;28;20156;-67
2021/07/29 23:52:32;;;;;;;;;;;;;;;19.64;55.32;99782.94;10308843;28;20315;-67
2021/07/29 23:57:35;;;;;;;;;;;;;;;19.61;56.01;99781.44;10305456;28;20008;-68
